Time;durP1;ratioP1;P1;durP2;ratioP2;P2;SDS_P1;SDS_P2;PMS_P1;PMS_P2;Temp;Humidity;BMP_temperature;BMP_pressure;BME280_temperature;BME280_humidity;BME280_pressure;Samples;Min_cycle;Max_cycle;Signal;HPM_P1;HPM_P2
2022/03/27 00:02:21;;;;;;;6.45;2.28;;;7.60;99.90;;;;;;5067533;27;36570;-52
2022/03/27 00:04:48;;;;;;;7.00;2.88;;;7.50;99.90;;;;;;5069230;28;38478;-53
2022/03/27 00:07:16;;;;;;;6.55;2.58;;;7.60;99.90;;;;;;5069301;28;40798;-52
2022/03/27 00:09:43;;;;;;;7.63;2.40;;;7.60;99.90;;;;;;5068600;28;37423;-53
2022/03/27 00:12:11;;;;;;;5.82;2.80;;;7.60;99.90;;;;;;5067511;27;36918;-53
2022/03/27 00:14:38;;;;;;;6.18;2.88;;;7.70;99.90;;;;;;5067732;28;37025;-54
2022/03/27 00:17:07;;;;;;;6.93;3.40;;;7.80;99.90;;;;;;5068005;27;37865;-53
2022/03/27 00:19:37;;;;;;;7.25;2.38;;;7.80;99.90;;;;;;5066641;27;40177;-54
2022/03/27 00:22:05;;;;;;;9.43;2.38;;;7.80;99.90;;;;;;5067416;27;35245;-54
2022/03/27 00:24:32;;;;;;;5.80;2.67;;;7.90;99.90;;;;;;5068213;28;38412;-53
2022/03/27 00:26:59;;;;;;;6.38;2.72;;;7.90;99.90;;;;;;5067275;28;37711;-51
2022/03/27 00:29:27;;;;;;;6.57;3.05;;;8.00;99.90;;;;;;5067140;27;39314;-53
2022/03/27 00:31:54;;;;;;;7.20;2.58;;;8.00;99.90;;;;;;5067469;28;35619;-52
2022/03/27 00:34:23;;;;;;;5.60;2.60;;;8.10;99.90;;;;;;5067979;27;37627;-54
2022/03/27 00:36:51;;;;;;;9.50;2.75;;;8.10;99.90;;;;;;5067928;27;37557;-53
2022/03/27 00:39:18;;;;;;;8.40;2.83;;;8.10;99.90;;;;;;5066456;27;37620;-53
2022/03/27 00:41:45;;;;;;;9.48;2.88;;;8.10;99.90;;;;;;5067975;27;36473;-52
2022/03/27 00:44:13;;;;;;;10.02;2.95;;;8.10;99.90;;;;;;5066506;27;37862;-50
2022/03/27 00:46:41;;;;;;;6.22;2.83;;;8.10;99.90;;;;;;5066099;27;38968;-53
2022/03/27 00:49:08;;;;;;;10.18;3.78;;;8.10;99.90;;;;;;5067105;27;37452;-52
2022/03/27 00:51:37;;;;;;;7.50;2.92;;;8.00;99.90;;;;;;5066379;27;36491;-50
2022/03/27 00:54:05;;;;;;;10.18;3.15;;;8.00;99.90;;;;;;5065904;27;37837;-51
2022/03/27 00:56:32;;;;;;;8.77;3.53;;;8.00;99.90;;;;;;5066249;27;38344;-50
2022/03/27 00:59:00;;;;;;;10.35;3.00;;;7.90;99.90;;;;;;5067080;28;36216;-52
2022/03/27 01:01:35;;;;;;;13.52;3.63;;;8.00;99.90;;;;;;5067154;27;36074;-52
2022/03/27 01:04:02;;;;;;;11.65;3.50;;;8.00;99.90;;;;;;5067107;28;37489;-52
2022/03/27 01:06:32;;;;;;;8.23;3.45;;;8.00;99.90;;;;;;5066970;27;38366;-51
2022/03/27 01:11:48;;;;;;;8.10;3.13;;;8.10;99.90;;;;;;5067411;28;38461;-51
2022/03/27 01:14:21;;;;;;;10.68;3.53;;;8.10;99.90;;;;;;5067920;27;36345;-51
2022/03/27 01:16:59;;;;;;;8.15;3.10;;;8.10;99.90;;;;;;5067370;28;38030;-50
2022/03/27 01:19:28;;;;;;;7.88;3.22;;;8.10;99.90;;;;;;5066914;27;38920;-51
2022/03/27 01:21:57;;;;;;;6.47;2.90;;;8.10;99.90;;;;;;5067614;28;35312;-49
2022/03/27 01:24:25;;;;;;;6.80;3.10;;;8.10;99.90;;;;;;5066742;27;36354;-53
2022/03/27 01:26:52;;;;;;;6.28;2.83;;;8.20;99.90;;;;;;5066161;27;38855;-53
2022/03/27 01:29:20;;;;;;;7.88;3.55;;;8.20;99.90;;;;;;5067170;27;38318;-52
2022/03/27 01:31:47;;;;;;;9.48;3.58;;;8.10;99.90;;;;;;5067214;27;35278;-51
2022/03/27 01:34:15;;;;;;;9.48;3.83;;;8.20;99.90;;;;;;5066530;27;37803;-54
2022/03/27 01:36:42;;;;;;;11.00;3.55;;;8.20;99.90;;;;;;5065892;28;37853;-52
2022/03/27 01:39:13;;;;;;;8.63;3.55;;;8.20;99.90;;;;;;5066770;27;38285;-52
2022/03/27 01:41:42;;;;;;;7.40;3.22;;;8.20;99.90;;;;;;5067455;28;36551;-50
2022/03/27 01:44:12;;;;;;;8.45;3.28;;;8.20;99.90;;;;;;5066556;28;37220;-52
2022/03/27 01:46:42;;;;;;;7.28;3.45;;;8.20;99.90;;;;;;5067398;27;38460;-51
2022/03/27 01:49:10;;;;;;;8.32;3.50;;;8.20;99.90;;;;;;5067786;27;37747;-50
2022/03/27 01:51:41;;;;;;;12.30;3.72;;;8.20;99.90;;;;;;5067660;27;36694;-53
2022/03/27 01:54:08;;;;;;;8.07;3.90;;;8.20;99.90;;;;;;5066191;28;37931;-52
2022/03/27 01:56:38;;;;;;;9.30;3.15;;;8.20;99.90;;;;;;5065712;27;39143;-51
2022/03/27 01:59:06;;;;;;;11.57;3.97;;;8.20;99.90;;;;;;5065130;28;37646;-52
2022/03/27 02:01:34;;;;;;;11.75;3.45;;;8.20;99.90;;;;;;5067335;28;36409;-52
2022/03/27 02:04:01;;;;;;;7.82;3.08;;;8.20;99.90;;;;;;5064944;27;37154;-52
2022/03/27 02:06:29;;;;;;;14.57;3.85;;;8.20;99.90;;;;;;5065688;27;41055;-53
2022/03/27 02:08:56;;;;;;;10.45;3.92;;;8.10;99.90;;;;;;5067009;28;36109;-51
2022/03/27 02:11:23;;;;;;;9.82;3.60;;;8.10;99.90;;;;;;5066707;27;36610;-52
2022/03/27 02:13:52;;;;;;;16.52;3.50;;;8.00;99.90;;;;;;5066665;27;37806;-52
2022/03/27 02:16:19;;;;;;;8.38;3.10;;;7.90;99.90;;;;;;5067025;27;37893;-52
2022/03/27 02:18:47;;;;;;;8.70;3.65;;;7.80;99.90;;;;;;5066637;27;36052;-51
2022/03/27 02:21:14;;;;;;;11.90;3.92;;;7.80;99.90;;;;;;5064922;27;36602;-52
2022/03/27 02:23:42;;;;;;;13.15;3.65;;;7.70;99.90;;;;;;5067058;27;38602;-51
2022/03/27 02:26:09;;;;;;;6.82;3.38;;;7.70;99.90;;;;;;5066196;27;38153;-50
2022/03/27 02:28:36;;;;;;;10.27;3.72;;;7.60;99.90;;;;;;5066790;27;38878;-51
2022/03/27 02:31:05;;;;;;;11.48;3.63;;;7.50;99.90;;;;;;5064767;27;37489;-51
2022/03/27 02:33:32;;;;;;;9.45;3.42;;;7.40;99.90;;;;;;5065872;28;37487;-53
2022/03/27 02:36:00;;;;;;;10.55;4.03;;;7.40;99.90;;;;;;5066384;28;38459;-51
2022/03/27 02:38:27;;;;;;;11.75;3.97;;;7.40;99.90;;;;;;5066491;28;37358;-51
2022/03/27 02:40:55;;;;;;;8.55;3.63;;;7.30;99.90;;;;;;5065280;28;35304;-53
2022/03/27 02:43:22;;;;;;;9.93;3.20;;;7.30;99.90;;;;;;5065130;27;38513;-52
2022/03/27 02:45:50;;;;;;;5.50;3.08;;;7.30;99.90;;;;;;5066443;27;37777;-50
2022/03/27 02:48:19;;;;;;;6.72;3.20;;;7.30;99.90;;;;;;5065858;27;36100;-52
2022/03/27 02:50:47;;;;;;;9.35;3.72;;;7.30;99.90;;;;;;5065557;27;37235;-51
2022/03/27 02:53:14;;;;;;;8.40;3.55;;;7.30;99.90;;;;;;5065496;27;36415;-52
2022/03/27 02:55:41;;;;;;;7.30;3.28;;;7.20;99.90;;;;;;5065620;27;36809;-51
2022/03/27 02:58:09;;;;;;;8.18;3.40;;;7.20;99.90;;;;;;5065700;27;37238;-50
2022/03/27 03:00:37;;;;;;;8.30;3.17;;;7.20;99.90;;;;;;5063692;28;36533;-51
2022/03/27 03:03:05;;;;;;;8.82;3.88;;;7.10;99.90;;;;;;5064485;28;38257;-48
2022/03/27 03:05:34;;;;;;;8.82;3.03;;;7.10;99.90;;;;;;5064742;27;37842;-52
2022/03/27 03:08:03;;;;;;;6.78;3.30;;;7.10;99.90;;;;;;5064771;28;39782;-52
2022/03/27 03:10:30;;;;;;;7.75;2.70;;;7.10;99.90;;;;;;5065221;27;36399;-52
2022/03/27 03:12:58;;;;;;;8.07;3.88;;;7.10;99.90;;;;;;5066289;28;37540;-52
2022/03/27 03:15:26;;;;;;;8.45;3.05;;;7.10;99.90;;;;;;5065334;27;37352;-50
2022/03/27 03:17:54;;;;;;;8.27;3.33;;;6.80;99.90;;;;;;5065387;27;36855;-49
2022/03/27 03:20:21;;;;;;;9.52;3.28;;;7.10;99.90;;;;;;5065690;27;36617;-50
2022/03/27 03:22:50;;;;;;;9.48;3.70;;;7.00;99.90;;;;;;5063359;27;38274;-52
2022/03/27 03:25:18;;;;;;;7.38;2.97;;;7.00;99.90;;;;;;5063179;27;38780;-50
2022/03/27 03:27:45;;;;;;;7.22;2.67;;;7.00;99.90;;;;;;5064132;28;35944;-51
2022/03/27 03:30:13;;;;;;;7.47;3.08;;;7.00;99.90;;;;;;5063966;27;36416;-52
2022/03/27 03:32:40;;;;;;;7.97;3.05;;;7.00;99.90;;;;;;5063654;27;38046;-50
2022/03/27 03:35:08;;;;;;;6.72;2.65;;;6.90;99.90;;;;;;5065279;27;38086;-52
2022/03/27 03:37:35;;;;;;;6.25;2.92;;;6.90;99.90;;;;;;5064431;28;39187;-52
2022/03/27 03:40:06;;;;;;;5.82;2.17;;;6.80;99.90;;;;;;5065465;27;36652;-53
2022/03/27 03:42:34;;;;;;;7.35;2.22;;;6.70;99.90;;;;;;5064936;27;36240;-49
2022/03/27 03:45:02;;;;;;;4.90;2.50;;;6.70;99.90;;;;;;5065103;28;37963;-50
2022/03/27 03:47:29;;;;;;;5.57;2.40;;;6.70;99.90;;;;;;5064599;27;37307;-48
2022/03/27 03:49:56;;;;;;;5.90;2.75;;;6.60;99.90;;;;;;5065927;27;36396;-53
2022/03/27 03:52:24;;;;;;;12.13;2.70;;;6.60;99.90;;;;;;5065546;28;37885;-51
2022/03/27 03:54:51;;;;;;;6.32;2.55;;;6.60;99.90;;;;;;5064224;28;37723;-52
2022/03/27 03:57:20;;;;;;;7.05;2.20;;;6.60;99.90;;;;;;5064710;28;38612;-52
2022/03/27 03:59:47;;;;;;;7.00;2.35;;;6.50;99.90;;;;;;5061856;28;36296;-50
2022/03/27 04:02:18;;;;;;;6.78;2.33;;;6.50;99.90;;;;;;5063872;27;37545;-52
2022/03/27 04:04:46;;;;;;;6.45;2.40;;;6.40;99.90;;;;;;5065684;27;37676;-51
2022/03/27 04:07:14;;;;;;;9.80;2.17;;;6.50;99.90;;;;;;5064632;28;38956;-51
2022/03/27 04:09:41;;;;;;;10.07;2.58;;;6.40;99.90;;;;;;5065207;27;35167;-52
2022/03/27 04:12:10;;;;;;;11.70;2.50;;;6.40;99.90;;;;;;5064732;27;40206;-52
2022/03/27 04:14:39;;;;;;;9.43;2.70;;;6.30;99.90;;;;;;5064992;27;39299;-50
2022/03/27 04:17:06;;;;;;;18.52;3.60;;;6.30;99.90;;;;;;5065285;27;40422;-49
2022/03/27 04:19:33;;;;;;;23.10;3.22;;;6.30;99.90;;;;;;5064009;27;38035;-51
2022/03/27 04:22:01;;;;;;;18.42;3.40;;;6.30;99.90;;;;;;5066682;28;36216;-51
2022/03/27 04:24:28;;;;;;;9.93;2.88;;;6.30;99.90;;;;;;5065086;27;39405;-49
2022/03/27 04:26:56;;;;;;;17.42;3.03;;;6.20;99.90;;;;;;5066815;27;39179;-52
2022/03/27 04:29:23;;;;;;;7.63;2.17;;;6.20;99.90;;;;;;5068352;27;35158;-51
2022/03/27 04:31:52;;;;;;;18.05;2.58;;;6.20;99.90;;;;;;5068054;27;38784;-54
2022/03/27 04:34:20;;;;;;;6.47;2.30;;;6.20;99.90;;;;;;5066702;27;37038;-52
2022/03/27 04:36:47;;;;;;;9.15;2.05;;;6.20;99.90;;;;;;5067829;27;37305;-53
2022/03/27 04:39:15;;;;;;;4.32;1.80;;;6.20;99.90;;;;;;5067917;28;36583;-52
2022/03/27 04:41:44;;;;;;;4.75;2.15;;;6.20;99.90;;;;;;5066496;27;37635;-54
2022/03/27 04:44:11;;;;;;;6.50;2.35;;;6.10;99.90;;;;;;5067093;28;36338;-52
2022/03/27 04:46:38;;;;;;;6.43;2.63;;;6.20;99.90;;;;;;5066124;27;36308;-53
2022/03/27 04:49:07;;;;;;;6.07;2.40;;;6.20;99.90;;;;;;5067108;27;38019;-49
2022/03/27 04:51:35;;;;;;;6.47;2.50;;;6.20;99.90;;;;;;5065842;28;38625;-50
2022/03/27 04:54:03;;;;;;;4.38;1.85;;;6.10;99.90;;;;;;5067509;27;36437;-51
2022/03/27 04:56:31;;;;;;;4.40;1.60;;;6.10;99.90;;;;;;5067540;27;36714;-49
2022/03/27 04:58:58;;;;;;;4.05;1.45;;;6.00;99.90;;;;;;5065992;27;36627;-50
2022/03/27 05:01:26;;;;;;;5.68;1.60;;;6.00;99.80;;;;;;5065612;27;38658;-50
2022/03/27 05:03:53;;;;;;;3.33;1.50;;;5.90;99.80;;;;;;5067721;27;36348;-51
2022/03/27 05:06:22;;;;;;;2.65;1.00;;;5.90;99.90;;;;;;5067914;27;38106;-48
2022/03/27 05:08:51;;;;;;;2.03;0.82;;;5.80;99.80;;;;;;5068345;27;36401;-50
2022/03/27 05:11:18;;;;;;;2.40;0.80;;;5.80;99.70;;;;;;5067576;27;40211;-49
2022/03/27 05:13:45;;;;;;;3.45;1.33;;;5.80;99.70;;;;;;5066959;28;37751;-49
2022/03/27 05:16:13;;;;;;;3.67;0.90;;;5.80;99.70;;;;;;5066771;28;36173;-51
2022/03/27 05:18:40;;;;;;;5.10;0.93;;;5.70;99.80;;;;;;5066101;28;37020;-50
2022/03/27 05:21:07;;;;;;;1.13;0.70;;;5.70;99.90;;;;;;5066932;28;37433;-51
2022/03/27 05:23:37;;;;;;;142.48;6.38;;;5.60;99.90;;;;;;5067735;28;42682;-50
2022/03/27 05:26:04;;;;;;;52.40;2.53;;;5.60;99.80;;;;;;5066609;28;37422;-51
2022/03/27 05:28:32;;;;;;;50.70;2.42;;;5.50;99.90;;;;;;5066278;27;36978;-52
2022/03/27 05:30:59;;;;;;;57.88;2.60;;;5.40;99.90;;;;;;5067321;28;38210;-51
2022/03/27 05:33:27;;;;;;;116.93;4.75;;;5.40;99.90;;;;;;5066727;28;38892;-51
2022/03/27 05:35:54;;;;;;;113.53;4.90;;;5.30;99.90;;;;;;5067846;27;37826;-47
2022/03/27 05:38:21;;;;;;;68.63;3.42;;;5.40;99.90;;;;;;5067292;28;37347;-51
2022/03/27 05:40:50;;;;;;;48.88;2.30;;;5.40;99.90;;;;;;5067292;28;36561;-47
2022/03/27 05:43:17;;;;;;;4.85;0.95;;;5.30;99.90;;;;;;5066421;28;38005;-49
2022/03/27 05:45:44;;;;;;;4.55;0.98;;;5.30;99.90;;;;;;5066435;28;37566;-49
2022/03/27 05:48:14;;;;;;;55.78;2.58;;;5.40;99.90;;;;;;5066527;27;36994;-52
2022/03/27 05:50:41;;;;;;;124.85;5.28;;;5.40;99.90;;;;;;5067541;28;38784;-51
2022/03/27 05:53:08;;;;;;;120.10;4.53;;;5.40;99.90;;;;;;5066723;28;38157;-52
2022/03/27 05:55:36;;;;;;;30.92;2.30;;;5.50;99.90;;;;;;5066560;27;38382;-51
2022/03/27 05:58:04;;;;;;;32.80;2.20;;;5.50;99.90;;;;;;5066418;28;37050;-50
2022/03/27 06:00:33;;;;;;;8.18;1.75;;;5.60;99.90;;;;;;5064971;28;37412;-52
2022/03/27 06:03:01;;;;;;;8.32;1.33;;;5.70;99.90;;;;;;5066934;28;38738;-52
2022/03/27 06:05:28;;;;;;;10.20;2.00;;;5.80;99.90;;;;;;5066062;27;36175;-52
2022/03/27 06:07:58;;;;;;;5.72;1.52;;;6.00;99.90;;;;;;5065661;27;36524;-50
2022/03/27 06:10:28;;;;;;;4.78;1.20;;;6.10;99.90;;;;;;5064952;28;36112;-49
2022/03/27 06:12:56;;;;;;;6.60;1.60;;;6.30;99.90;;;;;;5065851;27;37972;-52
2022/03/27 06:15:26;;;;;;;8.45;1.48;;;6.40;99.90;;;;;;5065148;27;38085;-51
2022/03/27 06:17:55;;;;;;;12.10;2.75;;;6.50;99.90;;;;;;5066240;28;36702;-50
2022/03/27 06:20:24;;;;;;;10.27;2.20;;;6.60;99.90;;;;;;5067009;27;37764;-52
2022/03/27 06:22:52;;;;;;;7.32;2.17;;;6.70;99.90;;;;;;5065953;28;37178;-52
2022/03/27 06:25:21;;;;;;;9.70;2.05;;;6.70;99.90;;;;;;5065186;27;37247;-50
2022/03/27 06:27:49;;;;;;;15.50;2.60;;;6.80;99.90;;;;;;5065902;27;35904;-50
2022/03/27 06:30:19;;;;;;;8.85;2.08;;;6.90;99.90;;;;;;5066649;28;38435;-51
2022/03/27 06:32:48;;;;;;;15.57;3.63;;;7.10;99.90;;;;;;5065106;27;36452;-54
2022/03/27 06:35:16;;;;;;;11.40;3.38;;;7.40;99.90;;;;;;5065913;27;37146;-52
2022/03/27 06:37:45;;;;;;;13.85;3.70;;;7.50;99.90;;;;;;5065324;27;36360;-52
2022/03/27 06:40:13;;;;;;;18.25;3.53;;;7.60;99.90;;;;;;5066538;28;36311;-52
2022/03/27 06:42:42;;;;;;;19.58;3.30;;;7.70;99.90;;;;;;5065765;28;38534;-53
2022/03/27 06:45:10;;;;;;;18.23;3.58;;;7.80;99.90;;;;;;5064734;27;36116;-54
2022/03/27 06:47:38;;;;;;;17.77;3.38;;;7.90;99.90;;;;;;5066357;28;36384;-52
2022/03/27 06:50:08;;;;;;;21.70;5.68;;;7.90;99.90;;;;;;5064734;28;36404;-51
2022/03/27 06:52:36;;;;;;;19.58;3.85;;;7.90;99.90;;;;;;5063642;27;38700;-49
2022/03/27 06:55:05;;;;;;;19.77;4.97;;;8.00;99.90;;;;;;5064717;28;38039;-51
2022/03/27 06:57:33;;;;;;;22.88;4.65;;;8.10;99.90;;;;;;5064115;28;36547;-52
2022/03/27 07:03:06;;;;;;;26.30;5.55;;;8.20;99.90;;;;;;5065183;28;37362;-52
2022/03/27 07:05:37;;;;;;;34.22;6.72;;;8.40;99.90;;;;;;5065048;28;36183;-53
2022/03/27 07:08:06;;;;;;;31.75;6.82;;;8.70;99.90;;;;;;5065988;27;37693;-49
2022/03/27 07:10:33;;;;;;;35.33;6.85;;;8.80;99.90;;;;;;5065742;28;40548;-52
2022/03/27 07:13:01;;;;;;;27.60;6.68;;;9.00;99.90;;;;;;5064213;27;37739;-52
2022/03/27 07:15:28;;;;;;;23.63;5.82;;;9.10;99.90;;;;;;5064901;27;37324;-52
2022/03/27 07:17:55;;;;;;;26.63;5.35;;;9.20;99.90;;;;;;5065000;28;36405;-53
2022/03/27 07:20:25;;;;;;;27.67;6.97;;;9.30;99.90;;;;;;5066035;27;38313;-50
2022/03/27 07:22:55;;;;;;;24.25;7.22;;;9.50;99.90;;;;;;5064811;27;37292;-50
2022/03/27 07:25:24;;;;;;;26.42;6.50;;;9.70;99.70;;;;;;5065581;27;37797;-52
2022/03/27 07:27:51;;;;;;;28.40;6.65;;;9.80;99.60;;;;;;5064412;27;36510;-49
2022/03/27 07:30:19;;;;;;;29.27;6.65;;;9.90;99.60;;;;;;5065038;28;36321;-53
2022/03/27 07:32:47;;;;;;;27.90;6.78;;;10.10;99.50;;;;;;5064009;28;37782;-51
2022/03/27 07:35:17;;;;;;;43.35;8.35;;;10.30;99.40;;;;;;5065942;27;37805;-49
2022/03/27 07:37:46;;;;;;;27.63;5.93;;;10.60;98.60;;;;;;5065719;27;35150;-52
2022/03/27 07:40:15;;;;;;;34.90;8.60;;;10.80;98.20;;;;;;5065159;27;36215;-52
2022/03/27 07:42:46;;;;;;;41.05;7.40;;;10.90;97.60;;;;;;5065035;27;38354;-49
2022/03/27 07:45:15;;;;;;;43.33;7.97;;;11.10;97.70;;;;;;5064889;27;37307;-50
2022/03/27 07:47:43;;;;;;;38.22;8.55;;;11.20;97.30;;;;;;5065531;27;36490;-52
2022/03/27 07:50:11;;;;;;;36.20;8.32;;;11.30;97.00;;;;;;5066048;27;37371;-53
2022/03/27 07:52:39;;;;;;;39.67;8.07;;;11.30;96.70;;;;;;5064747;27;37676;-51
2022/03/27 07:55:08;;;;;;;44.40;9.05;;;11.30;97.10;;;;;;5065359;27;36158;-51
2022/03/27 07:57:37;;;;;;;43.97;8.90;;;11.40;97.60;;;;;;5068350;28;37093;-52
2022/03/27 08:00:07;;;;;;;25.58;6.63;;;11.40;97.10;;;;;;5068840;28;36346;-51
2022/03/27 08:02:35;;;;;;;34.75;7.07;;;11.60;96.70;;;;;;5067980;27;39167;-52
2022/03/27 08:05:02;;;;;;;35.67;7.95;;;11.70;96.40;;;;;;5068862;27;39175;-52
2022/03/27 08:07:29;;;;;;;32.00;7.68;;;11.80;95.90;;;;;;5067525;27;35126;-52
2022/03/27 08:09:57;;;;;;;38.75;8.57;;;11.90;95.90;;;;;;5068350;27;37688;-50
2022/03/27 08:12:24;;;;;;;34.35;7.43;;;12.10;95.50;;;;;;5068286;28;37875;-51
2022/03/27 08:14:53;;;;;;;36.05;8.75;;;12.40;95.30;;;;;;5066830;27;37409;-52
2022/03/27 08:17:21;;;;;;;34.60;8.00;;;12.80;94.20;;;;;;5066571;27;35178;-52
2022/03/27 08:19:49;;;;;;;41.53;8.27;;;13.20;93.50;;;;;;5067590;28;38573;-53
2022/03/27 08:22:19;;;;;;;31.33;7.22;;;13.80;92.60;;;;;;5067631;27;37243;-53
2022/03/27 08:24:47;;;;;;;29.83;7.63;;;14.20;91.60;;;;;;5068566;28;37395;-54
2022/03/27 08:27:14;;;;;;;29.52;7.43;;;14.50;90.00;;;;;;5067436;27;34524;-53
2022/03/27 08:29:42;;;;;;;35.30;7.10;;;14.70;88.50;;;;;;5067416;27;37567;-53
2022/03/27 08:32:14;;;;;;;30.65;6.60;;;14.90;85.90;;;;;;5067576;27;37762;-53
2022/03/27 08:34:44;;;;;;;33.17;7.47;;;15.10;83.00;;;;;;5065366;27;37545;-53
2022/03/27 08:37:13;;;;;;;28.25;6.43;;;15.20;84.10;;;;;;5068635;28;36201;-54
2022/03/27 08:39:44;;;;;;;33.92;7.70;;;15.30;82.40;;;;;;5068566;27;38454;-54
2022/03/27 08:42:13;;;;;;;31.75;8.25;;;15.40;82.20;;;;;;5066914;28;37873;-54
2022/03/27 08:44:40;;;;;;;33.63;8.45;;;15.40;81.40;;;;;;5068295;27;37296;-54
2022/03/27 08:47:17;;;;;;;33.38;7.97;;;15.40;82.10;;;;;;5067883;28;37178;-54
2022/03/27 08:49:53;;;;;;;30.20;8.20;;;15.50;78.40;;;;;;5067050;27;37494;-53
2022/03/27 08:52:50;;;;;;;35.88;8.35;;;15.40;78.00;;;;;;5066671;27;37585;-53
2022/03/27 08:55:20;;;;;;;26.77;6.95;;;15.40;75.20;;;;;;5067560;27;37407;-54
2022/03/27 08:57:56;;;;;;;27.48;6.78;;;15.40;77.30;;;;;;5068181;27;34639;-54
2022/03/27 09:00:25;;;;;;;25.17;6.45;;;15.60;71.70;;;;;;5066774;27;37701;-53
2022/03/27 09:02:54;;;;;;;28.77;6.93;;;15.70;74.00;;;;;;5067245;27;38429;-49
2022/03/27 09:05:23;;;;;;;28.70;6.75;;;15.80;72.30;;;;;;5068285;28;39803;-53
2022/03/27 09:07:53;;;;;;;30.58;7.32;;;16.00;72.60;;;;;;5066999;27;37969;-53
2022/03/27 09:10:22;;;;;;;36.45;7.68;;;16.20;70.20;;;;;;5068066;27;38589;-53
2022/03/27 09:12:51;;;;;;;35.00;7.93;;;16.30;70.20;;;;;;5067240;27;38760;-54
2022/03/27 09:15:19;;;;;;;26.02;6.85;;;16.50;68.20;;;;;;5066707;27;37231;-52
2022/03/27 09:18:00;;;;;;;33.50;7.22;;;16.60;64.70;;;;;;5065347;27;37347;-53
2022/03/27 09:20:36;;;;;;;28.65;6.53;;;16.70;61.40;;;;;;5065960;27;37403;-53
2022/03/27 09:23:22;;;;;;;33.38;7.85;;;16.80;62.90;;;;;;5065914;27;36516;-52
2022/03/27 09:25:58;;;;;;;33.80;7.22;;;16.90;63.60;;;;;;5067463;28;37042;-53
2022/03/27 09:28:31;;;;;;;34.30;7.40;;;17.30;61.70;;;;;;5066715;28;35339;-52
2022/03/27 09:30:59;;;;;;;;;;;17.70;60.80;;;;;;5068024;28;37326;-54
2022/03/27 09:33:46;;;;;;;29.73;7.70;;;18.10;57.00;;;;;;5065479;27;38170;-53
2022/03/27 09:36:15;;;;;;;27.30;6.75;;;18.40;56.20;;;;;;5066479;27;37530;-54
2022/03/27 09:39:06;;;;;;;28.48;6.50;;;18.50;57.90;;;;;;5066150;27;36593;-54
2022/03/27 09:41:42;;;;;;;28.45;7.25;;;18.40;55.50;;;;;;5063808;28;36247;-54
2022/03/27 09:44:12;;;;;;;24.77;6.43;;;18.40;57.40;;;;;;5066430;27;37569;-54
2022/03/27 09:46:58;;;;;;;27.67;6.97;;;18.40;57.30;;;;;;5065892;27;36103;-54
2022/03/27 09:49:40;;;;;;;29.35;7.82;;;18.20;57.20;;;;;;5067934;27;36320;-52
2022/03/27 09:52:10;;;;;;;23.00;6.40;;;18.10;56.90;;;;;;5063523;28;35630;-54
2022/03/27 09:54:52;;;;;;;24.23;6.05;;;17.90;58.90;;;;;;5063097;27;38896;-54
2022/03/27 09:57:21;;;;;;;22.98;5.80;;;17.80;57.10;;;;;;5064421;27;35981;-54
2022/03/27 09:59:49;;;;;;;25.45;6.13;;;17.60;56.10;;;;;;5064582;28;36527;-53
2022/03/27 10:02:22;;;;;;;26.42;6.47;;;17.50;56.30;;;;;;5064743;27;37487;-53
2022/03/27 10:04:58;;;;;;;22.03;5.57;;;17.20;56.00;;;;;;5064665;27;38882;-54
2022/03/27 10:07:27;;;;;;;20.42;5.97;;;16.90;55.90;;;;;;5064742;28;37436;-53
2022/03/27 10:09:55;;;;;;;23.15;5.57;;;16.80;57.70;;;;;;5063988;28;36383;-54
2022/03/27 10:12:27;;;;;;;24.45;6.18;;;16.80;58.30;;;;;;5065604;28;37882;-53
2022/03/27 10:14:57;;;;;;;26.85;6.60;;;16.80;56.80;;;;;;5065681;27;37631;-53
2022/03/27 10:17:28;;;;;;;25.63;6.20;;;17.00;56.50;;;;;;5065991;27;20517;-53
2022/03/27 10:20:02;;;;;;;23.17;6.18;;;17.00;57.10;;;;;;5064316;27;36339;-52
2022/03/27 10:22:30;;;;;;;27.38;6.72;;;17.10;57.00;;;;;;5065420;28;39460;-54
2022/03/27 10:25:03;;;;;;;22.02;5.63;;;17.20;56.90;;;;;;5064659;27;36293;-54
2022/03/27 10:27:31;;;;;;;29.63;6.93;;;17.40;55.50;;;;;;5065065;28;38268;-53
2022/03/27 10:29:59;;;;;;;24.17;5.60;;;17.80;55.20;;;;;;5065704;27;36429;-54
2022/03/27 10:32:27;;;;;;;25.00;6.18;;;18.10;51.90;;;;;;5064638;27;38648;-55
2022/03/27 10:35:13;;;;;;;22.15;5.65;;;18.40;50.80;;;;;;5062778;28;36498;-52
2022/03/27 10:37:53;;;;;;;25.80;6.28;;;18.70;49.50;;;;;;5065205;27;37037;-53
2022/03/27 10:40:27;;;;;;;20.95;5.53;;;18.90;49.80;;;;;;5064097;27;36730;-54
2022/03/27 10:43:01;;;;;;;21.70;5.60;;;18.90;49.20;;;;;;5064929;28;37438;-54
2022/03/27 10:45:30;;;;;;;25.42;6.43;;;19.10;49.50;;;;;;5065357;27;38209;-54
2022/03/27 10:48:11;;;;;;;27.85;6.28;;;19.20;48.90;;;;;;5064321;28;37259;-55
2022/03/27 10:50:49;;;;;;;26.30;6.78;;;19.20;48.40;;;;;;5065580;27;36729;-54
2022/03/27 10:53:17;;;;;;;28.02;6.57;;;19.00;48.30;;;;;;5063870;27;37560;-53
2022/03/27 10:55:46;;;;;;;24.33;7.40;;;18.70;49.00;;;;;;5065095;27;38009;-54
2022/03/27 10:58:28;;;;;;;24.52;6.03;;;18.40;49.90;;;;;;5065041;27;38242;-55
2022/03/27 11:00:55;;;;;;;23.75;4.70;;;18.10;51.00;;;;;;5066250;28;36434;-53
2022/03/27 11:03:49;;;;;;;25.65;5.30;;;17.80;52.20;;;;;;5059112;27;39359;-53
2022/03/27 11:06:31;;;;;;;27.38;6.80;;;17.50;52.00;;;;;;5063137;27;39065;-54
2022/03/27 11:09:00;;;;;;;22.00;5.22;;;17.30;52.30;;;;;;5062036;27;36141;-54
2022/03/27 11:12:04;;;;;;;23.77;5.28;;;17.10;52.30;;;;;;5063284;28;36565;-54
2022/03/27 11:15:02;;;;;;;19.85;4.88;;;17.00;52.00;;;;;;5061295;28;37513;-54
2022/03/27 11:17:44;;;;;;;27.00;5.88;;;16.90;52.00;;;;;;5060005;27;37219;-53
2022/03/27 11:20:32;;;;;;;22.67;5.65;;;16.90;53.80;;;;;;5061609;27;39057;-54
2022/03/27 11:23:04;;;;;;;21.70;4.55;;;16.80;53.70;;;;;;5062158;27;41765;-53
2022/03/27 11:25:45;;;;;;;25.38;6.18;;;16.70;52.90;;;;;;5062256;28;37878;-53
2022/03/27 11:28:13;;;;;;;24.80;5.13;;;16.70;53.40;;;;;;5061604;27;40091;-53
2022/03/27 11:31:18;;;;;;;17.17;4.22;;;16.70;53.40;;;;;;5063196;27;39745;-54
2022/03/27 11:34:18;;;;;;;17.50;4.32;;;16.70;50.20;;;;;;5065301;27;38364;-53
2022/03/27 11:36:49;;;;;;;20.10;4.65;;;16.50;49.80;;;;;;5066386;27;37410;-54
2022/03/27 11:39:36;;;;;;;17.25;4.28;;;16.50;51.60;;;;;;5066827;28;38066;-53
2022/03/27 11:42:28;;;;;;;16.02;3.88;;;16.40;50.50;;;;;;5065574;27;37763;-53
2022/03/27 11:45:19;;;;;;;16.15;3.55;;;16.40;50.60;;;;;;5064461;27;36734;-54
2022/03/27 11:47:49;;;;;;;21.10;4.03;;;16.30;49.40;;;;;;5063982;27;38799;-53
2022/03/27 11:50:22;;;;;;;14.85;4.10;;;16.20;49.60;;;;;;5065784;27;37675;-53
2022/03/27 11:52:50;;;;;;;18.48;4.97;;;16.20;48.50;;;;;;5064577;28;37865;-54
2022/03/27 11:55:19;;;;;;;14.15;3.65;;;16.20;48.10;;;;;;5065959;27;34116;-54
2022/03/27 11:57:48;;;;;;;17.48;3.92;;;16.20;49.10;;;;;;5066232;27;36141;-55
2022/03/27 12:00:28;;;;;;;14.57;3.50;;;16.20;48.90;;;;;;5064288;28;37920;-54
2022/03/27 12:02:55;;;;;;;15.30;3.60;;;16.30;49.70;;;;;;5065858;28;36594;-53
2022/03/27 12:05:26;;;;;;;13.95;3.65;;;16.30;49.60;;;;;;5065808;27;36764;-54
2022/03/27 12:07:56;;;;;;;13.43;3.13;;;16.20;49.80;;;;;;5066705;28;39190;-53
2022/03/27 12:10:26;;;;;;;19.08;3.65;;;16.10;49.30;;;;;;5069450;28;38757;-53
2022/03/27 12:12:58;;;;;;;16.48;3.55;;;16.10;49.60;;;;;;5069760;28;37793;-53
2022/03/27 12:15:40;;;;;;;12.13;3.15;;;16.00;49.70;;;;;;5070321;27;36621;-54
2022/03/27 12:18:07;;;;;;;14.32;3.17;;;16.00;48.00;;;;;;5069585;27;37530;-59
2022/03/27 12:20:42;;;;;;;17.73;3.28;;;15.90;48.40;;;;;;5070258;28;39089;-59
2022/03/27 12:23:21;;;;;;;15.25;2.75;;;15.90;48.40;;;;;;5067414;27;37668;-57
2022/03/27 12:29:43;;;;;;;15.27;3.20;;;15.80;49.60;;;;;;5068857;28;38410;-53
2022/03/27 12:32:13;;;;;;;20.60;4.10;;;15.70;47.40;;;;;;5041057;28;37112;-53
2022/03/27 12:34:43;;;;;;;13.35;3.00;;;15.70;48.80;;;;;;5067197;28;37387;-52
2022/03/27 12:37:16;;;;;;;17.45;3.92;;;15.60;48.90;;;;;;5070677;27;36837;-59
2022/03/27 12:40:03;;;;;;;14.77;3.25;;;15.60;48.90;;;;;;5070011;27;37213;-59
2022/03/27 12:42:36;;;;;;;9.90;2.67;;;15.60;47.00;;;;;;5070060;27;38432;-59
2022/03/27 12:45:07;;;;;;;16.45;3.15;;;15.50;48.70;;;;;;5069930;27;38404;-58
2022/03/27 12:47:36;;;;;;;14.60;3.10;;;15.40;49.30;;;;;;5069935;27;36621;-52
2022/03/27 12:50:04;;;;;;;17.38;3.05;;;15.40;49.80;;;;;;5069252;27;36330;-58
2022/03/27 12:52:31;;;;;;;14.85;3.22;;;15.40;49.80;;;;;;5071076;28;39888;-58
2022/03/27 12:55:01;;;;;;;14.82;3.45;;;15.20;49.60;;;;;;5070522;28;37999;-53
2022/03/27 12:57:53;;;;;;;15.30;3.80;;;15.20;51.40;;;;;;5069809;27;36583;-52
2022/03/27 13:00:22;;;;;;;15.50;3.58;;;15.20;52.10;;;;;;5069723;28;38147;-53
2022/03/27 13:02:50;;;;;;;16.02;4.10;;;15.20;52.30;;;;;;5066979;28;38888;-53
2022/03/27 13:05:28;;;;;;;22.13;3.95;;;15.20;52.60;;;;;;5067941;27;39780;-52
2022/03/27 13:07:57;;;;;;;17.98;4.28;;;15.20;54.20;;;;;;5070904;27;36570;-53
2022/03/27 13:10:26;;;;;;;14.93;3.72;;;15.20;54.90;;;;;;5069313;27;38788;-52
2022/03/27 13:13:05;;;;;;;20.50;4.82;;;15.10;54.40;;;;;;5067610;27;38792;-53